Time,TemperatureF,DewpointF,PressureIn,WindDirection,WindDirectionDegrees,WindSpeedMPH,WindSpeedGustMPH,Humidity,HourlyPrecipIn,Conditions,Clouds,dailyrainin,SoftwareType,DateUTC
2013-02-10 00:00:00,20.3,-9.9,30.30,NNW,343,5.8,5.8,25,0.00,,---,0.00,VWS V14.01,2013-02-10 05:00:00,
2013-02-10 00:05:00,20.3,-9.9,30.33,NNW,330,3.6,3.6,25,0.00,,---,0.00,VWS V14.01,2013-02-10 05:05:00,
2013-02-10 00:10:00,20.1,-10.1,30.33,NNW,333,2.2,2.2,25,0.00,,---,0.00,VWS V14.01,2013-02-10 05:10:00,
2013-02-10 00:15:00,19.9,-10.2,30.33,WNW,283,3.6,3.6,25,0.00,,---,0.00,VWS V14.01,2013-02-10 05:15:00,
2013-02-10 00:20:00,19.8,-10.4,30.33,WNW,288,5.8,5.8,25,0.00,,---,0.00,VWS V14.01,2013-02-10 05:20:00,
2013-02-10 00:25:00,19.6,-10.5,30.33,WNW,295,4.0,4.0,25,0.00,,---,0.00,VWS V14.01,2013-02-10 05:25:00,
2013-02-10 00:30:00,19.4,-10.7,30.33,WNW,285,4.0,4.0,25,0.00,,---,0.00,VWS V14.01,2013-02-10 05:30:00,
2013-02-10 00:35:00,19.4,-10.7,30.33,NW,314,8.1,8.1,25,0.00,,---,0.00,VWS V14.01,2013-02-10 05:35:00,
2013-02-10 00:40:00,19.4,-8.4,30.33,WNW,286,5.4,5.4,28,0.00,,---,0.00,VWS V14.01,2013-02-10 05:40:00,
2013-02-10 00:45:00,19.4,-8.4,30.33,NNW,339,7.6,7.6,28,0.00,,---,0.00,VWS V14.01,2013-02-10 05:45:00,
2013-02-10 00:50:00,19.4,-8.4,30.33,NNW,328,5.4,5.4,28,0.00,,---,0.00,VWS V14.01,2013-02-10 05:50:00,
2013-02-10 00:55:00,19.4,-8.4,30.33,NW,310,4.0,4.0,28,0.00,,---,0.00,VWS V14.01,2013-02-10 05:55:00,
2013-02-10 01:00:00,19.2,-8.5,30.33,NW,317,4.0,4.0,28,0.00,,---,0.00,VWS V14.01,2013-02-10 06:00:00,
2013-02-10 01:05:00,19.2,-8.5,30.33,NW,311,2.7,2.7,28,0.00,,---,0.00,VWS V14.01,2013-02-10 06:05:00,
2013-02-10 01:10:00,18.9,-8.9,30.33,NW,308,2.7,2.7,28,0.00,,---,0.00,VWS V14.01,2013-02-10 06:10:00,
2013-02-10 01:15:00,18.7,-9.0,30.33,NNW,328,6.3,6.3,28,0.00,,---,0.00,VWS V14.01,2013-02-10 06:15:00,
2013-02-10 01:20:00,18.7,-7.6,30.33,WNW,302,4.0,4.0,30,0.00,,---,0.00,VWS V14.01,2013-02-10 06:20:00,
2013-02-10 01:25:00,18.5,-7.8,30.33,North,2,4.9,4.9,30,0.00,,---,0.00,VWS V14.01,2013-02-10 06:25:00,
2013-02-10 01:31:00,18.5,-7.8,30.33,North,353,4.0,4.0,30,0.00,,---,0.00,VWS V14.01,2013-02-10 06:31:00,
2013-02-10 01:36:00,18.5,-7.8,30.33,NW,312,5.4,5.4,30,0.00,,---,0.00,VWS V14.01,2013-02-10 06:36:00,
2013-02-10 01:41:00,18.1,-8.1,30.33,NW,317,4.5,4.5,30,0.00,,---,0.00,VWS V14.01,2013-02-10 06:41:00,
2013-02-10 01:46:00,18.1,-8.1,30.33,North,353,3.6,3.6,30,0.00,,---,0.00,VWS V14.01,2013-02-10 06:46:00,
2013-02-10 01:51:00,18.0,-8.2,30.33,WNW,297,2.7,2.7,30,0.00,,---,0.00,VWS V14.01,2013-02-10 06:51:00,
2013-02-10 01:56:00,17.8,-6.4,30.33,WNW,301,5.8,5.8,33,0.00,,---,0.00,VWS V14.01,2013-02-10 06:56:00,
2013-02-10 02:01:00,17.6,-6.6,30.36,West,271,3.6,3.6,33,0.00,,---,0.00,VWS V14.01,2013-02-10 07:01:00,
2013-02-10 02:06:00,17.6,-6.0,30.36,WNW,294,5.8,5.8,34,0.00,,---,0.00,VWS V14.01,2013-02-10 07:06:00,
2013-02-10 02:11:00,17.6,-6.0,30.36,WNW,295,0.0,0.0,34,0.00,,---,0.00,VWS V14.01,2013-02-10 07:11:00,
2013-02-10 02:16:00,17.4,-6.1,30.36,NNW,329,4.0,4.0,34,0.00,,---,0.00,VWS V14.01,2013-02-10 07:16:00,
2013-02-10 02:21:00,17.2,-6.3,30.36,NW,317,5.4,5.4,34,0.00,,---,0.00,VWS V14.01,2013-02-10 07:21:00,
2013-02-10 02:26:00,17.1,-6.5,30.36,NW,324,0.0,0.0,34,0.00,,---,0.00,VWS V14.01,2013-02-10 07:26:00,
2013-02-10 02:31:00,17.1,-6.5,30.36,NW,320,3.1,3.1,34,0.00,,---,0.00,VWS V14.01,2013-02-10 07:31:00,
2013-02-10 02:36:00,17.1,-6.5,30.36,West,279,5.8,5.8,34,0.00,,---,0.00,VWS V14.01,2013-02-10 07:36:00,
2013-02-10 02:41:00,17.2,-6.3,30.36,WNW,284,4.0,4.0,34,0.00,,---,0.00,VWS V14.01,2013-02-10 07:41:00,
2013-02-10 02:46:00,17.2,-6.3,30.36,WNW,300,5.8,5.8,34,0.00,,---,0.00,VWS V14.01,2013-02-10 07:46:00,
2013-02-10 02:51:00,17.1,-6.5,30.36,WSW,258,2.2,2.2,34,0.00,,---,0.00,VWS V14.01,2013-02-10 07:51:00,
2013-02-10 02:56:00,16.9,-6.6,30.36,NW,314,2.2,2.2,34,0.00,,---,0.00,VWS V14.01,2013-02-10 07:56:00,
2013-02-10 03:01:00,16.7,-6.8,30.36,West,271,4.5,4.5,34,0.00,,---,0.00,VWS V14.01,2013-02-10 08:01:00,
2013-02-10 03:06:00,16.7,-6.2,30.36,WNW,299,2.2,2.2,35,0.00,,---,0.00,VWS V14.01,2013-02-10 08:06:00,
2013-02-10 03:11:00,16.5,-6.3,30.36,WNW,285,2.2,2.2,35,0.00,,---,0.00,VWS V14.01,2013-02-10 08:11:00,
2013-02-10 03:16:00,16.2,-6.7,30.36,NNW,329,4.9,4.9,35,0.00,,---,0.00,VWS V14.01,2013-02-10 08:16:00,
2013-02-10 03:21:00,16.2,-6.7,30.36,WNW,285,5.4,5.4,35,0.00,,---,0.00,VWS V14.01,2013-02-10 08:21:00,
2013-02-10 03:26:00,16.2,-6.7,30.36,NW,316,2.7,2.7,35,0.00,,---,0.00,VWS V14.01,2013-02-10 08:26:00,
2013-02-10 03:31:00,16.0,-6.8,30.36,NW,323,2.2,2.2,35,0.00,,---,0.00,VWS V14.01,2013-02-10 08:31:00,
2013-02-10 03:36:00,15.8,-7.0,30.36,NW,323,2.2,2.2,35,0.00,,---,0.00,VWS V14.01,2013-02-10 08:36:00,
2013-02-10 03:42:00,15.6,-6.6,30.36,NW,325,3.6,3.6,36,0.00,,---,0.00,VWS V14.01,2013-02-10 08:42:00,
2013-02-10 03:47:00,15.4,-6.7,30.36,West,277,3.6,3.6,36,0.00,,---,0.00,VWS V14.01,2013-02-10 08:47:00,
2013-02-10 03:52:00,15.6,-6.0,30.36,WNW,295,4.9,4.9,37,0.00,,---,0.00,VWS V14.01,2013-02-10 08:52:00,
2013-02-10 03:57:00,15.6,-6.0,30.36,NNW,328,2.2,2.2,37,0.00,,---,0.00,VWS V14.01,2013-02-10 08:57:00,
2013-02-10 04:02:00,15.3,-6.3,30.36,West,274,2.7,2.7,37,0.00,,---,0.00,VWS V14.01,2013-02-10 09:02:00,
2013-02-10 04:07:00,15.3,-6.3,30.36,NW,306,0.0,0.0,37,0.00,,---,0.00,VWS V14.01,2013-02-10 09:07:00,
2013-02-10 04:12:00,15.1,-6.5,30.36,NW,313,0.0,0.0,37,0.00,,---,0.00,VWS V14.01,2013-02-10 09:12:00,
2013-02-10 04:17:00,14.5,-7.0,30.36,NW,320,3.6,3.6,37,0.00,,---,0.00,VWS V14.01,2013-02-10 09:17:00,
2013-02-10 04:22:00,14.4,-7.1,30.36,WNW,282,3.1,3.1,37,0.00,,---,0.00,VWS V14.01,2013-02-10 09:22:00,
2013-02-10 04:27:00,14.4,-7.1,30.36,WNW,284,2.7,2.7,37,0.00,,---,0.00,VWS V14.01,2013-02-10 09:27:00,
2013-02-10 04:32:00,14.4,-6.6,30.36,WNW,283,0.0,0.0,38,0.00,,---,0.00,VWS V14.01,2013-02-10 09:32:00,
2013-02-10 04:37:00,14.4,-6.6,30.36,NNW,327,3.6,3.6,38,0.00,,---,0.00,VWS V14.01,2013-02-10 09:37:00,
2013-02-10 04:42:00,14.2,-6.8,30.36,West,278,2.7,2.7,38,0.00,,---,0.00,VWS V14.01,2013-02-10 09:42:00,
2013-02-10 04:47:00,13.8,-6.6,30.36,West,261,0.0,0.0,39,0.00,,---,0.00,VWS V14.01,2013-02-10 09:47:00,
2013-02-10 04:52:00,13.6,-6.7,30.36,West,259,0.0,0.0,39,0.00,,---,0.00,VWS V14.01,2013-02-10 09:52:00,
2013-02-10 04:57:00,13.5,-6.9,30.36,WNW,282,3.6,3.6,39,0.00,,---,0.00,VWS V14.01,2013-02-10 09:57:00,
2013-02-10 05:02:00,13.6,-6.7,30.36,West,279,4.9,4.9,39,0.00,,---,0.00,VWS V14.01,2013-02-10 10:02:00,
2013-02-10 05:07:00,13.8,-6.6,30.36,WNW,285,2.2,2.2,39,0.00,,---,0.00,VWS V14.01,2013-02-10 10:07:00,
2013-02-10 05:12:00,13.8,-6.6,30.36,WSW,249,3.1,3.1,39,0.00,,---,0.00,VWS V14.01,2013-02-10 10:12:00,
2013-02-10 05:17:00,14.2,-4.7,30.39,West,264,5.8,5.8,42,0.00,,---,0.00,VWS V14.01,2013-02-10 10:17:00,
2013-02-10 05:22:00,14.2,-4.2,30.39,West,275,0.0,0.0,43,0.00,,---,0.00,VWS V14.01,2013-02-10 10:22:00,
2013-02-10 05:27:00,14.0,-4.4,30.39,West,273,0.0,0.0,43,0.00,,---,0.00,VWS V14.01,2013-02-10 10:27:00,
2013-02-10 05:32:00,13.8,-4.5,30.39,West,274,0.0,0.0,43,0.00,,---,0.00,VWS V14.01,2013-02-10 10:32:00,
2013-02-10 05:37:00,13.5,-4.9,30.39,West,274,0.0,0.0,43,0.00,,---,0.00,VWS V14.01,2013-02-10 10:37:00,
2013-02-10 05:42:00,13.1,-5.2,30.39,West,274,0.0,0.0,43,0.00,,---,0.00,VWS V14.01,2013-02-10 10:42:00,
2013-02-10 05:47:00,12.7,-5.5,30.39,West,274,0.0,0.0,43,0.00,,---,0.00,VWS V14.01,2013-02-10 10:47:00,
2013-02-10 05:52:00,12.4,-5.8,30.39,West,274,0.0,0.0,43,0.00,,---,0.00,VWS V14.01,2013-02-10 10:52:00,
2013-02-10 05:58:00,12.0,-6.2,30.39,West,274,0.0,0.0,43,0.00,,---,0.00,VWS V14.01,2013-02-10 10:58:00,
2013-02-10 06:03:00,11.8,-6.3,30.39,West,274,0.0,0.0,43,0.00,,---,0.00,VWS V14.01,2013-02-10 11:03:00,
2013-02-10 06:08:00,11.7,-6.5,30.39,West,274,0.0,0.0,43,0.00,,---,0.00,VWS V14.01,2013-02-10 11:08:00,
2013-02-10 06:13:00,11.3,-6.8,30.39,West,274,0.0,0.0,43,0.00,,---,0.00,VWS V14.01,2013-02-10 11:13:00,
2013-02-10 06:18:00,11.1,-7.0,30.39,West,281,0.0,0.0,43,0.00,,---,0.00,VWS V14.01,2013-02-10 11:18:00,
2013-02-10 06:23:00,11.1,-7.0,30.39,West,281,0.0,0.0,43,0.00,,---,0.00,VWS V14.01,2013-02-10 11:23:00,
2013-02-10 06:28:00,10.8,-7.3,30.39,West,281,0.0,0.0,43,0.00,,---,0.00,VWS V14.01,2013-02-10 11:28:00,
2013-02-10 06:33:00,10.6,-7.5,30.39,West,281,0.0,0.0,43,0.00,,---,0.00,VWS V14.01,2013-02-10 11:33:00,
2013-02-10 06:38:00,10.4,-7.7,30.39,West,281,0.0,0.0,43,0.00,,---,0.00,VWS V14.01,2013-02-10 11:38:00,
2013-02-10 06:43:00,10.4,-7.7,30.39,West,281,0.0,0.0,43,0.00,,---,0.00,VWS V14.01,2013-02-10 11:43:00,
2013-02-10 06:48:00,10.4,-7.7,30.39,West,281,0.0,0.0,43,0.00,,---,0.00,VWS V14.01,2013-02-10 11:48:00,
2013-02-10 06:53:00,10.4,-7.7,30.39,West,281,0.0,0.0,43,0.00,,---,0.00,VWS V14.01,2013-02-10 11:53:00,
2013-02-10 06:58:00,10.2,-7.8,30.42,West,281,0.0,0.0,43,0.00,,---,0.00,VWS V14.01,2013-02-10 11:58:00,
2013-02-10 07:03:00,10.2,-7.8,30.42,West,281,0.0,0.0,43,0.00,,---,0.00,VWS V14.01,2013-02-10 12:03:00,
2013-02-10 07:08:00,10.2,-7.8,30.42,West,281,0.0,0.0,43,0.00,,---,0.00,VWS V14.01,2013-02-10 12:08:00,
2013-02-10 07:13:00,10.4,-7.7,30.42,West,281,0.0,0.0,43,0.00,,---,0.00,VWS V14.01,2013-02-10 12:13:00,
2013-02-10 07:18:00,10.4,-7.7,30.42,West,281,0.0,0.0,43,0.00,,---,0.00,VWS V14.01,2013-02-10 12:18:00,
2013-02-10 07:23:00,10.4,-7.7,30.42,West,261,0.0,0.0,43,0.00,,---,0.00,VWS V14.01,2013-02-10 12:23:00,
2013-02-10 07:28:00,10.8,-7.3,30.42,SW,228,2.7,2.7,43,0.00,,---,0.00,VWS V14.01,2013-02-10 12:28:00,
2013-02-10 07:33:00,11.3,-6.8,30.42,WSW,253,3.6,3.6,43,0.00,,---,0.00,VWS V14.01,2013-02-10 12:33:00,
2013-02-10 07:38:00,11.8,-6.3,30.42,WNW,282,3.6,3.6,43,0.00,,---,0.00,VWS V14.01,2013-02-10 12:38:00,
2013-02-10 07:43:00,13.1,-5.2,30.42,WNW,296,2.7,2.7,43,0.00,,---,0.00,VWS V14.01,2013-02-10 12:43:00,
2013-02-10 07:48:00,13.8,-4.5,30.42,WSW,247,3.6,3.6,43,0.00,,---,0.00,VWS V14.01,2013-02-10 12:48:00,
2013-02-10 07:53:00,13.8,-4.5,30.42,WNW,288,0.0,0.0,43,0.00,,---,0.00,VWS V14.01,2013-02-10 12:53:00,
2013-02-10 07:59:00,13.8,-4.5,30.45,WSW,258,4.0,4.0,43,0.00,,---,0.00,VWS V14.01,2013-02-10 12:59:00,
2013-02-10 08:04:00,13.8,-4.5,30.45,WNW,285,3.6,3.6,43,0.00,,---,0.00,VWS V14.01,2013-02-10 13:04:00,
2013-02-10 08:09:00,13.8,-4.5,30.45,West,276,3.1,3.1,43,0.00,,---,0.00,VWS V14.01,2013-02-10 13:09:00,
2013-02-10 08:14:00,24.8,8.8,30.45,West,271,6.3,6.3,50,0.00,,---,0.00,VWS V14.01,2013-02-10 13:14:00,
2013-02-10 08:19:00,24.8,8.8,30.45,WNW,297,4.5,4.5,50,0.00,,---,0.00,VWS V14.01,2013-02-10 13:19:00,
2013-02-10 08:24:00,37.8,8.4,30.45,West,281,3.6,3.6,29,0.00,,---,0.00,VWS V14.01,2013-02-10 13:24:00,
2013-02-10 08:29:00,40.1,8.0,30.45,WNW,299,0.0,0.0,26,0.00,,---,0.00,VWS V14.01,2013-02-10 13:29:00,
2013-02-10 08:34:00,43.3,-1.2,30.45,NW,321,2.7,2.7,15,0.00,,---,0.00,VWS V14.01,2013-02-10 13:34:00,
2013-02-10 08:39:00,43.7,-0.9,30.45,West,279,6.3,6.3,15,0.00,,---,0.00,VWS V14.01,2013-02-10 13:39:00,
2013-02-10 08:44:00,43.7,-0.9,30.45,NW,305,3.1,3.1,15,0.00,,---,0.00,VWS V14.01,2013-02-10 13:44:00,
2013-02-10 08:49:00,43.7,-0.9,30.45,North,350,4.0,4.0,15,0.00,,---,0.00,VWS V14.01,2013-02-10 13:49:00,
2013-02-10 08:54:00,43.7,-0.9,30.45,North,357,4.5,4.5,15,0.00,,---,0.00,VWS V14.01,2013-02-10 13:54:00,
2013-02-10 08:59:00,43.7,-0.9,30.45,NW,324,4.0,4.0,15,0.00,,---,0.00,VWS V14.01,2013-02-10 13:59:00,
2013-02-10 09:04:00,38.7,-6.4,30.45,West,277,3.1,3.1,14,0.00,,---,0.00,VWS V14.01,2013-02-10 14:04:00,
2013-02-10 09:09:00,35.4,-7.6,30.45,NW,311,4.9,4.9,15,0.00,,---,0.00,VWS V14.01,2013-02-10 14:09:00,
2013-02-10 09:14:00,35.1,-7.9,30.45,West,260,4.5,4.5,15,0.00,,---,0.00,VWS V14.01,2013-02-10 14:14:00,
2013-02-10 09:19:00,38.1,-6.9,30.45,SW,233,5.4,5.4,14,0.00,,---,0.00,VWS V14.01,2013-02-10 14:19:00,
2013-02-10 09:24:00,37.0,-3.7,30.45,SW,236,5.8,5.8,17,0.00,,---,0.00,VWS V14.01,2013-02-10 14:24:00,
2013-02-10 09:29:00,38.3,-4.0,30.47,NW,307,4.0,4.0,16,0.00,,---,0.00,VWS V14.01,2013-02-10 14:29:00,
2013-02-10 09:34:00,39.7,-7.1,30.47,West,276,5.4,5.4,13,0.00,,---,0.00,VWS V14.01,2013-02-10 14:34:00,
2013-02-10 09:39:00,35.2,-7.8,30.47,WSW,250,4.0,4.0,15,0.00,,---,0.00,VWS V14.01,2013-02-10 14:39:00,
2013-02-10 09:44:00,34.0,-8.8,30.47,West,271,3.6,3.6,15,0.00,,---,0.00,VWS V14.01,2013-02-10 14:44:00,
2013-02-10 09:49:00,33.4,-9.2,30.47,West,264,3.1,3.1,15,0.00,,---,0.00,VWS V14.01,2013-02-10 14:49:00,
2013-02-10 09:54:00,32.5,-10.0,30.47,West,278,6.3,6.3,15,0.00,,---,0.00,VWS V14.01,2013-02-10 14:54:00,
2013-02-10 09:59:00,32.4,-10.1,30.47,NW,316,4.0,4.0,15,0.00,,---,0.00,VWS V14.01,2013-02-10 14:59:00,
2013-02-10 10:04:00,32.7,-9.8,30.47,WSW,239,3.6,3.6,15,0.00,,---,0.00,VWS V14.01,2013-02-10 15:04:00,
2013-02-10 10:09:00,32.7,-9.8,30.47,WSW,246,4.0,4.0,15,0.00,,---,0.00,VWS V14.01,2013-02-10 15:09:00,
2013-02-10 10:14:00,33.3,-5.7,30.47,NW,307,0.0,0.0,18,0.00,,---,0.00,VWS V14.01,2013-02-10 15:14:00,
2013-02-10 10:19:00,33.6,-5.3,30.47,NW,317,3.1,3.1,18,0.00,,---,0.00,VWS V14.01,2013-02-10 15:19:00,
2013-02-10 10:24:00,33.6,-5.3,30.47,SSW,204,3.1,3.1,18,0.00,,---,0.00,VWS V14.01,2013-02-10 15:24:00,
2013-02-10 10:29:00,33.8,-6.4,30.47,WNW,291,4.0,4.0,17,0.00,,---,0.00,VWS V14.01,2013-02-10 15:29:00,
2013-02-10 10:34:00,33.6,-9.1,30.47,NW,320,2.2,2.2,15,0.00,,---,0.00,VWS V14.01,2013-02-10 15:34:00,
2013-02-10 10:39:00,33.8,-6.4,30.47,North,357,2.2,2.2,17,0.00,,---,0.00,VWS V14.01,2013-02-10 15:39:00,
2013-02-10 10:44:00,34.0,-6.2,30.47,NW,320,4.0,4.0,17,0.00,,---,0.00,VWS V14.01,2013-02-10 15:44:00,
2013-02-10 10:49:00,34.3,-5.9,30.47,East,90,3.6,3.6,17,0.00,,---,0.00,VWS V14.01,2013-02-10 15:49:00,
2013-02-10 10:54:00,35.1,-5.3,30.47,WNW,286,0.0,0.0,17,0.00,,---,0.00,VWS V14.01,2013-02-10 15:54:00,
2013-02-10 10:59:00,35.4,-5.1,30.47,NNW,348,3.1,3.1,17,0.00,,---,0.00,VWS V14.01,2013-02-10 15:59:00,
2013-02-10 11:04:00,35.6,-4.9,30.47,ESE,105,2.7,2.7,17,0.00,,---,0.00,VWS V14.01,2013-02-10 16:04:00,
2013-02-10 11:09:00,35.8,-4.8,30.47,SW,215,3.6,3.6,17,0.00,,---,0.00,VWS V14.01,2013-02-10 16:09:00,
2013-02-10 11:14:00,36.1,-4.5,30.45,NE,46,3.1,3.1,17,0.00,,---,0.00,VWS V14.01,2013-02-10 16:14:00,
2013-02-10 11:19:00,36.7,-4.0,30.45,West,276,0.0,0.0,17,0.00,,---,0.00,VWS V14.01,2013-02-10 16:19:00,
2013-02-10 11:24:00,37.0,-3.7,30.45,West,272,0.0,0.0,17,0.00,,---,0.00,VWS V14.01,2013-02-10 16:24:00,
2013-02-10 11:29:00,37.2,-3.6,30.45,WSW,257,2.7,2.7,17,0.00,,---,0.00,VWS V14.01,2013-02-10 16:29:00,
2013-02-10 11:34:00,37.2,-3.6,30.45,SW,221,0.0,0.0,17,0.00,,---,0.00,VWS V14.01,2013-02-10 16:34:00,
2013-02-10 11:39:00,37.4,-4.7,30.45,SSE,163,0.0,0.0,16,0.04,,---,0.04,VWS V14.01,2013-02-10 16:39:00,
2013-02-10 11:44:00,37.9,-4.2,30.45,SSW,197,0.0,0.0,16,0.04,,---,0.04,VWS V14.01,2013-02-10 16:44:00,
2013-02-10 11:50:00,38.1,-4.1,30.45,SSE,152,0.0,0.0,16,0.04,,---,0.04,VWS V14.01,2013-02-10 16:50:00,
2013-02-10 11:55:00,38.3,-4.0,30.45,SSW,205,0.0,0.0,16,0.04,,---,0.04,VWS V14.01,2013-02-10 16:55:00,
2013-02-10 12:00:00,38.3,-4.0,30.45,SW,224,3.1,3.1,16,0.04,,---,0.04,VWS V14.01,2013-02-10 17:00:00,
2013-02-10 12:05:00,38.5,-3.8,30.45,West,267,2.2,2.2,16,0.04,,---,0.04,VWS V14.01,2013-02-10 17:05:00,
2013-02-10 12:10:00,38.7,-3.7,30.45,NE,38,0.0,0.0,16,0.04,,---,0.04,VWS V14.01,2013-02-10 17:10:00,
2013-02-10 12:15:00,38.7,-3.7,30.45,SW,214,0.0,0.0,16,0.04,,---,0.04,VWS V14.01,2013-02-10 17:15:00,
2013-02-10 12:20:00,38.3,-4.0,30.45,West,262,3.1,3.1,16,0.04,,---,0.04,VWS V14.01,2013-02-10 17:20:00,
2013-02-10 12:25:00,38.1,-4.1,30.42,NNE,28,0.0,0.0,16,0.04,,---,0.04,VWS V14.01,2013-02-10 17:25:00,
2013-02-10 12:30:00,37.9,-4.2,30.42,North,0,2.7,2.7,16,0.08,,---,0.00,VWS V14.01,2013-02-10 17:30:00,
2013-02-10 12:35:00,37.4,-4.7,30.42,NW,308,2.7,2.7,16,0.08,,---,0.08,VWS V14.01,2013-02-10 17:35:00,
2013-02-10 12:40:00,37.4,-4.7,30.42,NNW,331,3.6,3.6,16,0.08,,---,0.08,VWS V14.01,2013-02-10 17:40:00,
2013-02-10 12:45:00,37.6,-4.5,30.42,North,3,0.0,0.0,16,0.08,,---,0.08,VWS V14.01,2013-02-10 17:45:00,
2013-02-10 12:50:00,37.6,-4.5,30.39,NE,55,2.7,2.7,16,0.04,,---,0.08,VWS V14.01,2013-02-10 17:50:00,
2013-02-10 12:55:00,37.6,-4.5,30.39,East,88,3.6,3.6,16,0.04,,---,0.08,VWS V14.01,2013-02-10 17:55:00,
2013-02-10 13:00:00,37.6,-4.5,30.39,East,88,0.0,0.0,16,0.04,,---,0.08,VWS V14.01,2013-02-10 18:00:00,
2013-02-10 13:05:00,37.6,-4.5,30.39,ESE,103,3.6,3.6,16,0.04,,---,0.08,VWS V14.01,2013-02-10 18:05:00,
2013-02-10 13:10:00,37.6,-4.5,30.39,NNE,33,5.4,5.4,16,0.04,,---,0.08,VWS V14.01,2013-02-10 18:10:00,
2013-02-10 13:15:00,37.4,-4.7,30.39,ENE,71,3.1,3.1,16,0.04,,---,0.08,VWS V14.01,2013-02-10 18:15:00,
2013-02-10 13:20:00,36.7,-4.0,30.39,ENE,72,4.9,4.9,17,0.04,,---,0.08,VWS V14.01,2013-02-10 18:20:00,
2013-02-10 13:25:00,36.3,-4.3,30.39,ENE,65,3.6,3.6,17,0.04,,---,0.08,VWS V14.01,2013-02-10 18:25:00,
2013-02-10 13:30:00,36.0,-4.6,30.39,East,94,5.4,5.4,17,0.00,,---,0.08,VWS V14.01,2013-02-10 18:30:00,
2013-02-10 13:35:00,36.0,-4.6,30.39,ENE,78,4.0,4.0,17,0.04,,---,0.12,VWS V14.01,2013-02-10 18:35:00,
2013-02-10 13:40:00,35.8,-4.8,30.39,East,82,3.6,3.6,17,0.04,,---,0.12,VWS V14.01,2013-02-10 18:40:00,
2013-02-10 13:45:00,35.8,-4.8,30.39,East,85,3.6,3.6,17,0.04,,---,0.12,VWS V14.01,2013-02-10 18:45:00,
2013-02-10 13:50:00,35.2,-5.2,30.39,ESE,113,2.7,2.7,17,0.04,,---,0.12,VWS V14.01,2013-02-10 18:50:00,
2013-02-10 13:55:00,35.1,-5.3,30.39,East,99,5.4,5.4,17,0.04,,---,0.00,VWS V14.01,2013-02-10 18:55:00,
2013-02-10 14:00:00,34.9,-5.5,30.39,SE,137,3.1,3.1,17,0.04,,---,0.12,VWS V14.01,2013-02-10 19:00:00,
2013-02-10 14:05:00,34.9,-5.5,30.39,East,95,3.1,3.1,17,0.04,,---,0.12,VWS V14.01,2013-02-10 19:05:00,
2013-02-10 14:10:00,34.3,-5.9,30.39,ESE,116,5.4,5.4,17,0.04,,---,0.12,VWS V14.01,2013-02-10 19:10:00,
2013-02-10 14:15:00,34.0,-6.2,30.39,SSE,163,2.7,2.7,17,0.04,,---,0.12,VWS V14.01,2013-02-10 19:15:00,
2013-02-10 14:20:00,34.3,-5.9,30.39,ESE,116,5.4,5.4,17,0.04,,---,0.12,VWS V14.01,2013-02-10 19:20:00,
2013-02-10 14:25:00,34.2,-6.1,30.39,SSW,195,2.7,2.7,17,0.04,,---,0.12,VWS V14.01,2013-02-10 19:25:00,
2013-02-10 14:30:00,34.2,-6.1,30.39,SSW,194,4.0,4.0,17,0.04,,---,0.12,VWS V14.01,2013-02-10 19:30:00,
2013-02-10 14:35:00,34.2,-6.1,30.39,SSW,211,3.1,3.1,17,0.04,,---,0.12,VWS V14.01,2013-02-10 19:35:00,
2013-02-10 14:40:00,34.3,-5.9,30.39,ESE,116,2.2,2.2,17,0.04,,---,0.12,VWS V14.01,2013-02-10 19:40:00,
2013-02-10 14:45:00,34.2,-6.1,30.39,East,91,2.2,2.2,17,0.00,,---,0.12,VWS V14.01,2013-02-10 19:45:00,
2013-02-10 14:50:00,34.2,-6.1,30.39,SSE,168,3.6,3.6,17,0.00,,---,0.12,VWS V14.01,2013-02-10 19:50:00,
2013-02-10 14:55:00,34.0,-6.2,30.39,ENE,67,4.9,4.9,17,0.00,,---,0.12,VWS V14.01,2013-02-10 19:55:00,
2013-02-10 15:00:00,33.8,-6.4,30.39,ESE,109,4.9,4.9,17,0.00,,---,0.12,VWS V14.01,2013-02-10 20:00:00,
2013-02-10 15:05:00,33.8,-6.4,30.39,East,99,3.6,3.6,17,0.00,,---,0.12,VWS V14.01,2013-02-10 20:05:00,
2013-02-10 15:10:00,33.8,-6.4,30.36,South,177,3.6,3.6,17,0.00,,---,0.12,VWS V14.01,2013-02-10 20:10:00,
2013-02-10 15:15:00,33.8,-6.4,30.36,ESE,102,3.1,3.1,17,0.00,,---,0.12,VWS V14.01,2013-02-10 20:15:00,
2013-02-10 15:20:00,33.6,-5.3,30.36,SSE,147,0.0,0.0,18,0.00,,---,0.12,VWS V14.01,2013-02-10 20:20:00,
2013-02-10 15:25:00,33.4,-5.5,30.36,SSE,166,4.9,4.9,18,0.00,,---,0.12,VWS V14.01,2013-02-10 20:25:00,
2013-02-10 15:30:00,33.1,-5.8,30.36,SE,130,4.9,4.9,18,0.00,,---,0.12,VWS V14.01,2013-02-10 20:30:00,
2013-02-10 15:36:00,33.1,-5.8,30.36,SSE,164,5.4,5.4,18,0.00,,---,0.12,VWS V14.01,2013-02-10 20:36:00,
2013-02-10 15:41:00,32.7,-6.1,30.36,ESE,121,6.3,6.3,18,0.00,,---,0.12,VWS V14.01,2013-02-10 20:41:00,
2013-02-10 15:46:00,32.5,-6.2,30.36,SSE,160,0.0,0.0,18,0.00,,---,0.12,VWS V14.01,2013-02-10 20:46:00,
2013-02-10 15:51:00,32.5,-6.2,30.36,SSE,147,5.8,5.8,18,0.00,,---,0.12,VWS V14.01,2013-02-10 20:51:00,
2013-02-10 15:56:00,32.4,-4.2,30.36,East,90,6.7,6.7,20,0.00,,---,0.12,VWS V14.01,2013-02-10 20:56:00,
2013-02-10 16:01:00,32.2,-4.4,30.36,ESE,119,2.2,2.2,20,0.00,,---,0.12,VWS V14.01,2013-02-10 21:01:00,
2013-02-10 16:06:00,31.8,-4.7,30.36,East,94,5.4,5.4,20,0.00,,---,0.12,VWS V14.01,2013-02-10 21:06:00,
2013-02-10 16:11:00,31.8,-1.8,30.36,SSE,159,4.0,4.0,23,0.00,,---,0.12,VWS V14.01,2013-02-10 21:11:00,
2013-02-10 16:16:00,31.8,-1.8,30.36,SE,140,2.7,2.7,23,0.00,,---,0.12,VWS V14.01,2013-02-10 21:16:00,
2013-02-10 16:21:00,32.0,0.2,30.36,South,175,2.7,2.7,25,0.00,,---,0.12,VWS V14.01,2013-02-10 21:21:00,
2013-02-10 16:26:00,32.0,0.2,30.36,SSE,166,3.1,3.1,25,0.00,,---,0.12,VWS V14.01,2013-02-10 21:26:00,
2013-02-10 16:31:00,32.0,0.2,30.36,South,169,5.8,5.8,25,0.00,,---,0.12,VWS V14.01,2013-02-10 21:31:00,
2013-02-10 16:36:00,32.0,2.6,30.36,South,181,4.0,4.0,28,0.00,,---,0.12,VWS V14.01,2013-02-10 21:36:00,
2013-02-10 16:41:00,31.8,3.9,30.36,ESE,111,3.6,3.6,30,0.00,,---,0.12,VWS V14.01,2013-02-10 21:41:00,
2013-02-10 16:46:00,31.6,3.8,30.36,SE,129,2.7,2.7,30,0.00,,---,0.12,VWS V14.01,2013-02-10 21:46:00,
2013-02-10 16:51:00,31.3,3.5,30.36,SSE,153,3.1,3.1,30,0.00,,---,0.12,VWS V14.01,2013-02-10 21:51:00,
2013-02-10 16:56:00,31.3,4.2,30.36,South,188,5.4,5.4,31,0.00,,---,0.12,VWS V14.01,2013-02-10 21:56:00,
2013-02-10 17:01:00,30.9,3.8,30.36,SE,143,3.1,3.1,31,0.00,,---,0.12,VWS V14.01,2013-02-10 22:01:00,
2013-02-10 17:06:00,30.7,3.7,30.36,South,182,5.4,5.4,31,0.00,,---,0.12,VWS V14.01,2013-02-10 22:06:00,
2013-02-10 17:11:00,30.6,4.2,30.36,SSE,148,5.4,5.4,32,0.00,,---,0.12,VWS V14.01,2013-02-10 22:11:00,
2013-02-10 17:16:00,30.4,4.1,30.36,South,169,2.7,2.7,32,0.00,,---,0.12,VWS V14.01,2013-02-10 22:16:00,
2013-02-10 17:21:00,30.0,4.4,30.36,SSE,157,3.1,3.1,33,0.00,,---,0.12,VWS V14.01,2013-02-10 22:21:00,
2013-02-10 17:26:00,29.7,4.7,30.36,SSE,162,2.7,2.7,34,0.00,,---,0.12,VWS V14.01,2013-02-10 22:26:00,
2013-02-10 17:31:00,29.5,5.2,30.36,South,182,3.1,3.1,35,0.00,,---,0.12,VWS V14.01,2013-02-10 22:31:00,
2013-02-10 17:36:00,29.3,5.1,30.36,South,181,0.0,0.0,35,0.00,,---,0.12,VWS V14.01,2013-02-10 22:36:00,
2013-02-10 17:41:00,28.9,5.3,30.36,ESE,110,3.1,3.1,36,0.00,,---,0.12,VWS V14.01,2013-02-10 22:41:00,
2013-02-10 17:46:00,28.8,5.8,30.36,SE,136,3.1,3.1,37,0.00,,---,0.12,VWS V14.01,2013-02-10 22:46:00,
2013-02-10 17:51:00,28.8,6.4,30.36,SSE,154,2.2,2.2,38,0.00,,---,0.12,VWS V14.01,2013-02-10 22:51:00,
2013-02-10 17:56:00,28.4,6.1,30.36,SSE,150,0.0,0.0,38,0.00,,---,0.12,VWS V14.01,2013-02-10 22:56:00,
2013-02-10 18:01:00,28.4,6.6,30.36,SSE,154,2.2,2.2,39,0.00,,---,0.12,VWS V14.01,2013-02-10 23:01:00,
2013-02-10 18:06:00,28.2,7.0,30.36,SSE,166,0.0,0.0,40,0.00,,---,0.12,VWS V14.01,2013-02-10 23:06:00,
2013-02-10 18:11:00,28.0,7.4,30.36,SSE,157,3.1,3.1,41,0.00,,---,0.12,VWS V14.01,2013-02-10 23:11:00,
2013-02-10 18:16:00,27.9,7.2,30.36,South,181,2.7,2.7,41,0.00,,---,0.12,VWS V14.01,2013-02-10 23:16:00,
2013-02-10 18:21:00,27.5,6.9,30.36,South,178,3.6,3.6,41,0.00,,---,0.12,VWS V14.01,2013-02-10 23:21:00,
2013-02-10 18:26:00,27.5,6.9,30.36,South,172,0.0,0.0,41,0.00,,---,0.12,VWS V14.01,2013-02-10 23:26:00,
2013-02-10 18:31:00,27.1,6.6,30.36,South,170,3.6,3.6,41,0.00,,---,0.12,VWS V14.01,2013-02-10 23:31:00,
2013-02-10 18:36:00,27.0,6.4,30.36,South,170,0.0,0.0,41,0.00,,---,0.12,VWS V14.01,2013-02-10 23:36:00,
2013-02-10 18:41:00,27.0,6.9,30.39,South,171,2.2,2.2,42,0.00,,---,0.12,VWS V14.01,2013-02-10 23:41:00,
2013-02-10 18:46:00,26.6,6.6,30.39,SSW,195,2.7,2.7,42,0.00,,---,0.12,VWS V14.01,2013-02-10 23:46:00,
2013-02-10 18:51:00,26.6,6.6,30.39,South,172,3.1,3.1,42,0.00,,---,0.12,VWS V14.01,2013-02-10 23:51:00,
2013-02-10 18:56:00,27.0,7.5,30.39,SSW,193,5.4,5.4,43,0.00,,---,0.12,VWS V14.01,2013-02-10 23:56:00,
2013-02-10 19:01:00,27.1,7.6,30.39,South,184,4.5,4.5,43,0.00,,---,0.12,VWS V14.01,2013-02-11 00:01:00,
2013-02-10 19:06:00,27.3,8.3,30.39,SSW,202,3.1,3.1,44,0.00,,---,0.12,VWS V14.01,2013-02-11 00:06:00,
2013-02-10 19:12:00,27.5,8.5,30.36,South,169,2.7,2.7,44,0.00,,---,0.12,VWS V14.01,2013-02-11 00:12:00,
2013-02-10 19:17:00,27.3,8.3,30.36,South,189,2.2,2.2,44,0.00,,---,0.12,VWS V14.01,2013-02-11 00:17:00,
2013-02-10 19:22:00,27.3,8.8,30.36,South,170,0.0,0.0,45,0.00,,---,0.12,VWS V14.01,2013-02-11 00:22:00,
2013-02-10 19:27:00,27.1,8.6,30.36,South,173,0.0,0.0,45,0.00,,---,0.12,VWS V14.01,2013-02-11 00:27:00,
2013-02-10 19:32:00,27.1,8.6,30.36,South,170,0.0,0.0,45,0.00,,---,0.12,VWS V14.01,2013-02-11 00:32:00,
2013-02-10 19:37:00,27.0,8.5,30.36,South,170,0.0,0.0,45,0.00,,---,0.12,VWS V14.01,2013-02-11 00:37:00,
2013-02-10 19:42:00,27.0,8.5,30.36,South,186,0.0,0.0,45,0.00,,---,0.12,VWS V14.01,2013-02-11 00:42:00,
2013-02-10 19:47:00,26.8,8.3,30.36,SSW,213,0.0,0.0,45,0.00,,---,0.12,VWS V14.01,2013-02-11 00:47:00,
2013-02-10 19:52:00,26.6,8.6,30.36,SSW,211,0.0,0.0,46,0.00,,---,0.12,VWS V14.01,2013-02-11 00:52:00,
2013-02-10 19:57:00,26.4,8.5,30.36,South,182,0.0,0.0,46,0.00,,---,0.12,VWS V14.01,2013-02-11 00:57:00,
2013-02-10 20:02:00,26.2,8.3,30.36,South,185,0.0,0.0,46,0.00,,---,0.12,VWS V14.01,2013-02-11 01:02:00,
2013-02-10 20:07:00,26.1,8.6,30.36,South,175,0.0,0.0,47,0.00,,---,0.12,VWS V14.01,2013-02-11 01:07:00,
2013-02-10 20:12:00,26.1,8.6,30.36,South,175,0.0,0.0,47,0.00,,---,0.12,VWS V14.01,2013-02-11 01:12:00,
2013-02-10 20:17:00,26.1,8.6,30.36,South,175,0.0,0.0,47,0.00,,---,0.12,VWS V14.01,2013-02-11 01:17:00,
2013-02-10 20:22:00,25.9,8.4,30.36,South,175,0.0,0.0,47,0.00,,---,0.12,VWS V14.01,2013-02-11 01:22:00,
2013-02-10 20:27:00,25.5,8.1,30.36,South,175,0.0,0.0,47,0.00,,---,0.12,VWS V14.01,2013-02-11 01:27:00,
2013-02-10 20:32:00,25.3,7.9,30.36,South,175,0.0,0.0,47,0.00,,---,0.12,VWS V14.01,2013-02-11 01:32:00,
2013-02-10 20:37:00,25.3,7.9,30.36,South,175,0.0,0.0,47,0.00,,---,0.12,VWS V14.01,2013-02-11 01:37:00,
2013-02-10 20:42:00,25.2,7.8,30.36,South,175,0.0,0.0,47,0.00,,---,0.12,VWS V14.01,2013-02-11 01:42:00,
2013-02-10 20:47:00,25.0,7.6,30.36,South,175,0.0,0.0,47,0.00,,---,0.12,VWS V14.01,2013-02-11 01:47:00,
2013-02-10 20:52:00,25.0,8.1,30.36,South,176,0.0,0.0,48,0.00,,---,0.12,VWS V14.01,2013-02-11 01:52:00,
2013-02-10 20:57:00,25.2,8.2,30.36,South,176,2.2,2.2,48,0.00,,---,0.12,VWS V14.01,2013-02-11 01:57:00,
2013-02-10 21:02:00,25.3,8.9,30.36,South,176,0.0,0.0,49,0.00,,---,0.12,VWS V14.01,2013-02-11 02:02:00,
2013-02-10 21:08:00,25.3,8.9,30.36,SW,216,0.0,0.0,49,0.00,,---,0.12,VWS V14.01,2013-02-11 02:08:00,
2013-02-10 21:13:00,26.1,10.0,30.36,SW,216,0.0,0.0,50,0.00,,---,0.12,VWS V14.01,2013-02-11 02:13:00,
2013-02-10 21:18:00,26.4,10.8,30.36,South,184,0.0,0.0,51,0.00,,---,0.12,VWS V14.01,2013-02-11 02:18:00,
2013-02-10 21:23:00,26.8,11.1,30.36,SSW,194,0.0,0.0,51,0.00,,---,0.12,VWS V14.01,2013-02-11 02:23:00,
2013-02-10 21:28:00,27.0,11.3,30.36,South,177,0.0,0.0,51,0.00,,---,0.12,VWS V14.01,2013-02-11 02:28:00,
2013-02-10 21:33:00,27.1,11.4,30.36,South,177,0.0,0.0,51,0.00,,---,0.12,VWS V14.01,2013-02-11 02:33:00,
2013-02-10 21:38:00,27.5,11.8,30.36,South,177,0.0,0.0,51,0.00,,---,0.12,VWS V14.01,2013-02-11 02:38:00,
2013-02-10 21:43:00,27.7,11.9,30.36,South,177,0.0,0.0,51,0.00,,---,0.12,VWS V14.01,2013-02-11 02:43:00,
2013-02-10 21:48:00,27.9,12.1,30.36,SSE,153,0.0,0.0,51,0.00,,---,0.12,VWS V14.01,2013-02-11 02:48:00,
2013-02-10 21:53:00,28.0,12.3,30.36,SSE,153,0.0,0.0,51,0.00,,---,0.12,VWS V14.01,2013-02-11 02:53:00,
2013-02-10 21:58:00,28.2,12.4,30.36,SSE,153,0.0,0.0,51,0.00,,---,0.12,VWS V14.01,2013-02-11 02:58:00,
2013-02-10 22:03:00,28.2,12.0,30.36,SSE,153,0.0,0.0,50,0.00,,---,0.12,VWS V14.01,2013-02-11 03:03:00,
2013-02-10 22:08:00,28.2,12.0,30.36,SSE,153,0.0,0.0,50,0.00,,---,0.12,VWS V14.01,2013-02-11 03:08:00,
2013-02-10 22:13:00,28.4,12.1,30.36,SSE,157,0.0,0.0,50,0.00,,---,0.12,VWS V14.01,2013-02-11 03:13:00,
2013-02-10 22:18:00,28.4,12.1,30.33,SSE,157,0.0,0.0,50,0.00,,---,0.12,VWS V14.01,2013-02-11 03:18:00,
2013-02-10 22:23:00,28.6,11.9,30.33,SSE,164,0.0,0.0,49,0.00,,---,0.12,VWS V14.01,2013-02-11 03:23:00,
2013-02-10 22:28:00,28.6,11.9,30.33,SSE,164,0.0,0.0,49,0.00,,---,0.12,VWS V14.01,2013-02-11 03:28:00,
2013-02-10 22:33:00,28.8,12.0,30.33,SSE,165,0.0,0.0,49,0.00,,---,0.12,VWS V14.01,2013-02-11 03:33:00,
2013-02-10 22:38:00,28.8,12.0,30.33,SSE,165,0.0,0.0,49,0.00,,---,0.12,VWS V14.01,2013-02-11 03:38:00,
2013-02-10 22:43:00,28.8,12.0,30.33,SSE,165,0.0,0.0,49,0.00,,---,0.12,VWS V14.01,2013-02-11 03:43:00,
2013-02-10 22:48:00,28.8,12.0,30.33,SSE,165,0.0,0.0,49,0.00,,---,0.12,VWS V14.01,2013-02-11 03:48:00,
2013-02-10 22:53:00,28.9,12.2,30.33,SSE,165,0.0,0.0,49,0.00,,---,0.12,VWS V14.01,2013-02-11 03:53:00,
2013-02-10 22:58:00,28.9,12.2,30.33,SSE,165,0.0,0.0,49,0.00,,---,0.12,VWS V14.01,2013-02-11 03:58:00,
2013-02-10 23:03:00,28.9,11.7,30.33,SSE,165,0.0,0.0,48,0.00,,---,0.12,VWS V14.01,2013-02-11 04:03:00,
2013-02-10 23:08:00,28.9,11.7,30.30,SSE,165,0.0,0.0,48,0.00,,---,0.12,VWS V14.01,2013-02-11 04:08:00,
2013-02-10 23:13:00,29.1,11.9,30.30,SSE,165,0.0,0.0,48,0.00,,---,0.12,VWS V14.01,2013-02-11 04:13:00,
2013-02-10 23:18:00,29.1,12.4,30.30,SSE,165,0.0,0.0,49,0.00,,---,0.12,VWS V14.01,2013-02-11 04:18:00,
2013-02-10 23:23:00,29.1,12.4,30.30,SSE,165,0.0,0.0,49,0.00,,---,0.12,VWS V14.01,2013-02-11 04:23:00,
2013-02-10 23:28:00,29.1,12.4,30.30,SSE,165,0.0,0.0,49,0.00,,---,0.12,VWS V14.01,2013-02-11 04:28:00,
2013-02-10 23:33:00,29.1,12.4,30.30,SSE,165,0.0,0.0,49,0.00,,---,0.12,VWS V14.01,2013-02-11 04:33:00,
2013-02-10 23:38:00,29.3,12.5,30.30,SSE,165,0.0,0.0,49,0.00,,---,0.12,VWS V14.01,2013-02-11 04:38:00,
2013-02-10 23:43:00,29.3,12.5,30.30,SSE,165,0.0,0.0,49,0.00,,---,0.12,VWS V14.01,2013-02-11 04:43:00,
2013-02-10 23:48:00,29.3,12.5,30.30,SSE,165,0.0,0.0,49,0.00,,---,0.12,VWS V14.01,2013-02-11 04:48:00,
2013-02-10 23:53:00,29.5,12.7,30.30,SSE,165,0.0,0.0,49,0.00,,---,0.12,VWS V14.01,2013-02-11 04:53:00,
2013-02-10 23:58:00,29.5,13.1,30.33,SSE,165,0.0,0.0,50,0.00,,---,0.12,VWS V14.01,2013-02-11 04:58:00,